Weather at Cairo International Airport

Public forecast

Using degrees Celsius for public forecast. Weather courtesy of forecast.io.

Current aviation weather report (METAR) for Cairo International Airport

Retrieved 2020/12/05 05:30 UTC (0 seconds ago):

HECA 050530Z 00000KT 2000 HZ SCT025 15/08 Q1016 NOSIG

Aviation forecast (TAF) for Cairo International Airport

Retrieved 2020-12-05 00:40 UTC (5 hours ago):

TAF HECA 042300Z 0500/0606 18008KT 6000 SCT025 TEMPO 0500/0507 4000 HZ PROB40 TEMPO 0502/0506 2000 BECMG 0508/0510 31010KT 9999 SCT025